sensor_id;sensor_type;location;lat;lon;timestamp;pressure;altitude;pressure_sealevel;temperature;humidity
9035;BME280;4552;43.422;24.592;2023-07-30T02:52:28;99556.31;;;18.86;96.10
9035;BME280;4552;43.422;24.592;2023-07-30T02:58:38;99566.00;;;18.87;96.50
9035;BME280;4552;43.422;24.592;2023-07-30T03:01:05;99560.06;;;18.82;97.39
9035;BME280;4552;43.422;24.592;2023-07-30T03:03:33;99554.16;;;18.77;97.48
9035;BME280;4552;43.422;24.592;2023-07-30T03:06:00;99559.81;;;18.86;97.73
9035;BME280;4552;43.422;24.592;2023-07-30T03:08:29;99549.94;;;18.90;97.09
9035;BME280;4552;43.422;24.592;2023-07-30T03:10:57;99560.53;;;18.90;96.76
9035;BME280;4552;43.422;24.592;2023-07-30T03:13:25;99564.88;;;18.91;97.48
9035;BME280;4552;43.422;24.592;2023-07-30T03:15:55;99553.91;;;18.81;97.94
9035;BME280;4552;43.422;24.592;2023-07-30T03:18:22;99564.66;;;18.95;97.18
9035;BME280;4552;43.422;24.592;2023-07-30T03:20:49;99560.81;;;19.01;96.92
9035;BME280;4552;43.422;24.592;2023-07-30T03:23:16;99556.75;;;18.94;96.91
9035;BME280;4552;43.422;24.592;2023-07-30T03:25:44;99556.09;;;19.06;96.04
9035;BME280;4552;43.422;24.592;2023-07-30T03:28:11;99564.41;;;19.00;95.86
9035;BME280;4552;43.422;24.592;2023-07-30T03:30:38;99569.53;;;19.03;96.04
9035;BME280;4552;43.422;24.592;2023-07-30T03:33:05;99561.91;;;18.97;96.71
9035;BME280;4552;43.422;24.592;2023-07-30T03:35:32;99564.22;;;19.03;96.83
9035;BME280;4552;43.422;24.592;2023-07-30T03:37:59;99564.19;;;19.20;96.62
9035;BME280;4552;43.422;24.592;2023-07-30T03:40:26;99564.16;;;19.37;94.83
9035;BME280;4552;43.422;24.592;2023-07-30T03:42:55;99571.16;;;19.38;94.48
9035;BME280;4552;43.422;24.592;2023-07-30T03:45:22;99567.31;;;19.28;94.42
9035;BME280;4552;43.422;24.592;2023-07-30T03:47:49;99570.91;;;19.43;93.91
9035;BME280;4552;43.422;24.592;2023-07-30T03:50:16;99570.91;;;19.43;94.07
9035;BME280;4552;43.422;24.592;2023-07-30T03:52:43;99573.31;;;19.47;93.88
9035;BME280;4552;43.422;24.592;2023-07-30T03:55:11;99573.56;;;19.58;93.68
9035;BME280;4552;43.422;24.592;2023-07-30T03:57:38;99576.91;;;19.77;92.71
9035;BME280;4552;43.422;24.592;2023-07-30T05:17:32;99643.38;;;30.35;40.61
9035;BME280;4552;43.422;24.592;2023-07-30T05:20:12;99641.72;;;30.87;40.02
9035;BME280;4552;43.422;24.592;2023-07-30T05:22:39;99641.97;;;31.19;39.45
9035;BME280;4552;43.422;24.592;2023-07-30T08:34:39;99548.38;;;31.08;37.71
9035;BME280;4552;43.422;24.592;2023-07-30T08:37:09;99528.84;;;30.89;37.94
9035;BME280;4552;43.422;24.592;2023-07-30T08:39:36;99532.47;;;31.31;36.83
9035;BME280;4552;43.422;24.592;2023-07-30T08:42:12;99521.41;;;31.50;37.69
9035;BME280;4552;43.422;24.592;2023-07-30T08:44:39;99546.16;;;31.63;37.07
9035;BME280;4552;43.422;24.592;2023-07-30T13:31:46;99239.59;;;34.85;25.60
9035;BME280;4552;43.422;24.592;2023-07-30T13:34:14;99234.22;;;34.56;26.02
9035;BME280;4552;43.422;24.592;2023-07-30T13:36:44;99234.06;;;34.43;25.99
9035;BME280;4552;43.422;24.592;2023-07-30T13:39:11;99237.50;;;34.51;25.63
9035;BME280;4552;43.422;24.592;2023-07-30T13:41:41;99234.16;;;34.49;25.56
9035;BME280;4552;43.422;24.592;2023-07-30T13:44:08;99230.34;;;34.65;25.83
9035;BME280;4552;43.422;24.592;2023-07-30T13:46:36;99208.03;;;34.69;25.27
9035;BME280;4552;43.422;24.592;2023-07-30T13:49:04;99217.88;;;34.56;25.34
9035;BME280;4552;43.422;24.592;2023-07-30T13:51:33;99221.50;;;34.42;25.90
9035;BME280;4552;43.422;24.592;2023-07-30T13:54:00;99230.72;;;34.76;26.45
9035;BME280;4552;43.422;24.592;2023-07-30T13:56:28;99227.41;;;34.81;26.03
9035;BME280;4552;43.422;24.592;2023-07-30T13:58:55;99218.75;;;34.56;26.24
9035;BME280;4552;43.422;24.592;2023-07-30T14:01:25;99211.63;;;34.55;27.10
9035;BME280;4552;43.422;24.592;2023-07-30T14:03:52;99229.34;;;35.02;26.44
9035;BME280;4552;43.422;24.592;2023-07-30T14:06:23;99206.22;;;35.12;26.20
9035;BME280;4552;43.422;24.592;2023-07-30T14:08:50;99209.84;;;34.83;26.29
9035;BME280;4552;43.422;24.592;2023-07-30T14:11:19;99204.91;;;34.87;26.46
9035;BME280;4552;43.422;24.592;2023-07-30T14:13:46;99209.44;;;35.01;26.44
9035;BME280;4552;43.422;24.592;2023-07-30T14:16:13;99205.56;;;35.10;26.59
9035;BME280;4552;43.422;24.592;2023-07-30T14:18:40;99199.16;;;34.96;26.26
9035;BME280;4552;43.422;24.592;2023-07-30T14:21:07;99201.28;;;35.01;26.75
9035;BME280;4552;43.422;24.592;2023-07-30T14:23:40;99181.84;;;35.04;26.53
9035;BME280;4552;43.422;24.592;2023-07-30T16:50:52;99104.44;;;33.71;31.26
9035;BME280;4552;43.422;24.592;2023-07-30T16:53:19;99105.00;;;34.10;30.58
9035;BME280;4552;43.422;24.592;2023-07-30T16:55:46;99096.13;;;33.58;31.28
9035;BME280;4552;43.422;24.592;2023-07-30T16:58:13;99087.84;;;33.66;31.20
9035;BME280;4552;43.422;24.592;2023-07-30T17:00:40;99086.44;;;33.55;31.58
9035;BME280;4552;43.422;24.592;2023-07-30T17:03:07;99101.53;;;33.43;31.50
9035;BME280;4552;43.422;24.592;2023-07-30T17:05:34;99093.53;;;33.27;32.49
9035;BME280;4552;43.422;24.592;2023-07-30T17:08:05;99095.88;;;33.30;32.10
9035;BME280;4552;43.422;24.592;2023-07-30T17:20:27;99095.56;;;32.65;33.11
9035;BME280;4552;43.422;24.592;2023-07-30T17:22:58;99094.34;;;32.45;33.59
9035;BME280;4552;43.422;24.592;2023-07-30T17:25:29;99090.69;;;32.38;33.56
9035;BME280;4552;43.422;24.592;2023-07-30T17:28:15;99099.47;;;32.40;33.98
9035;BME280;4552;43.422;24.592;2023-07-30T17:30:42;99092.72;;;32.36;33.50
9035;BME280;4552;43.422;24.592;2023-07-30T17:36:32;99087.31;;;32.28;33.78
9035;BME280;4552;43.422;24.592;2023-07-30T17:39:03;99101.88;;;32.35;33.72
9035;BME280;4552;43.422;24.592;2023-07-30T17:41:32;99095.75;;;32.33;34.01
9035;BME280;4552;43.422;24.592;2023-07-30T17:43:59;99104.75;;;32.34;34.16
9035;BME280;4552;43.422;24.592;2023-07-30T17:46:26;99104.59;;;32.27;34.83
9035;BME280;4552;43.422;24.592;2023-07-30T17:52:25;99098.41;;;31.72;36.90
9035;BME280;4552;43.422;24.592;2023-07-30T17:54:51;99105.59;;;31.49;37.81
9035;BME280;4552;43.422;24.592;2023-07-30T17:57:20;99099.03;;;31.11;38.68
9035;BME280;4552;43.422;24.592;2023-07-30T17:59:49;99102.59;;;30.88;39.04
9035;BME280;4552;43.422;24.592;2023-07-30T18:02:16;99100.75;;;30.80;39.38
9035;BME280;4552;43.422;24.592;2023-07-30T18:04:44;99097.47;;;30.53;40.78
9035;BME280;4552;43.422;24.592;2023-07-30T18:07:11;99087.16;;;30.40;40.22
9035;BME280;4552;43.422;24.592;2023-07-30T18:09:38;99098.16;;;30.55;39.35
9035;BME280;4552;43.422;24.592;2023-07-30T18:12:08;99101.72;;;30.55;40.91
9035;BME280;4552;43.422;24.592;2023-07-30T18:17:52;99088.66;;;30.26;41.90
9035;BME280;4552;43.422;24.592;2023-07-30T18:20:22;99093.97;;;30.02;42.71
9035;BME280;4552;43.422;24.592;2023-07-30T18:22:49;99096.38;;;30.13;42.01
9035;BME280;4552;43.422;24.592;2023-07-30T18:25:16;99087.69;;;29.86;42.51
9035;BME280;4552;43.422;24.592;2023-07-30T18:27:46;99097.09;;;29.82;42.89
9035;BME280;4552;43.422;24.592;2023-07-30T18:30:45;99075.28;;;29.67;42.80
9035;BME280;4552;43.422;24.592;2023-07-30T18:33:34;99084.97;;;29.52;44.38
9035;BME280;4552;43.422;24.592;2023-07-30T18:36:10;99098.28;;;29.79;44.64
9035;BME280;4552;43.422;24.592;2023-07-30T18:38:42;99102.31;;;29.75;44.62
9035;BME280;4552;43.422;24.592;2023-07-30T18:41:10;99100.47;;;29.50;45.12
9035;BME280;4552;43.422;24.592;2023-07-30T18:43:49;99105.63;;;29.44;45.24
9035;BME280;4552;43.422;24.592;2023-07-30T18:51:26;99099.75;;;29.40;44.86
9035;BME280;4552;43.422;24.592;2023-07-30T18:54:01;99124.09;;;29.56;44.45
9035;BME280;4552;43.422;24.592;2023-07-30T18:56:28;99124.56;;;29.69;44.36
9035;BME280;4552;43.422;24.592;2023-07-30T18:59:20;99116.66;;;29.50;44.88
9035;BME280;4552;43.422;24.592;2023-07-30T19:01:52;99122.56;;;29.54;44.64
9035;BME280;4552;43.422;24.592;2023-07-30T19:11:00;99099.91;;;29.39;45.14
9035;BME280;4552;43.422;24.592;2023-07-30T19:13:29;99114.84;;;29.33;45.63
9035;BME280;4552;43.422;24.592;2023-07-30T19:16:04;99102.63;;;29.21;46.67
9035;BME280;4552;43.422;24.592;2023-07-30T19:23:39;99094.88;;;29.18;44.62
9035;BME280;4552;43.422;24.592;2023-07-30T19:26:08;99098.63;;;29.25;46.18
9035;BME280;4552;43.422;24.592;2023-07-30T19:28:55;99095.53;;;29.46;45.48
9035;BME280;4552;43.422;24.592;2023-07-30T19:32:00;99114.28;;;29.22;47.11
9035;BME280;4552;43.422;24.592;2023-07-30T19:50:49;99127.66;;;28.88;48.24
9035;BME280;4552;43.422;24.592;2023-07-30T19:53:17;99133.72;;;28.90;48.67
9035;BME280;4552;43.422;24.592;2023-07-30T19:55:44;99127.00;;;28.94;48.31
9035;BME280;4552;43.422;24.592;2023-07-30T19:58:23;99132.09;;;28.97;48.48
9035;BME280;4552;43.422;24.592;2023-07-30T20:00:51;99120.97;;;28.75;49.69
9035;BME280;4552;43.422;24.592;2023-07-30T20:13:25;99128.78;;;28.50;51.55
9035;BME280;4552;43.422;24.592;2023-07-30T20:15:54;99121.75;;;28.67;49.90
9035;BME280;4552;43.422;24.592;2023-07-30T20:18:24;99136.28;;;28.74;50.78
9035;BME280;4552;43.422;24.592;2023-07-30T21:29:07;99354.22;;;22.75;100.00
9035;BME280;4552;43.422;24.592;2023-07-30T21:31:34;99367.59;;;22.62;100.00
9035;BME280;4552;43.422;24.592;2023-07-30T21:50:59;99408.38;;;22.27;100.00
9035;BME280;4552;43.422;24.592;2023-07-30T21:53:26;99420.00;;;22.25;100.00
9035;BME280;4552;43.422;24.592;2023-07-30T21:56:00;99440.81;;;22.20;100.00
9035;BME280;4552;43.422;24.592;2023-07-30T21:58:29;99437.28;;;22.20;100.00
9035;BME280;4552;43.422;24.592;2023-07-30T22:01:01;99437.59;;;22.03;100.00
9035;BME280;4552;43.422;24.592;2023-07-30T22:03:36;99435.25;;;22.11;100.00
9035;BME280;4552;43.422;24.592;2023-07-30T22:08:54;99457.13;;;22.28;100.00
9035;BME280;4552;43.422;24.592;2023-07-30T22:19:22;99452.94;;;22.12;100.00
9035;BME280;4552;43.422;24.592;2023-07-30T22:22:10;99466.28;;;22.12;100.00
9035;BME280;4552;43.422;24.592;2023-07-30T22:27:22;99474.50;;;22.09;100.00
9035;BME280;4552;43.422;24.592;2023-07-30T22:30:14;99488.44;;;22.00;100.00
9035;BME280;4552;43.422;24.592;2023-07-30T23:26:43;99403.34;;;21.58;100.00
9035;BME280;4552;43.422;24.592;2023-07-30T23:29:11;99375.75;;;21.59;100.00
9035;BME280;4552;43.422;24.592;2023-07-30T23:45:09;99394.16;;;21.76;100.00
9035;BME280;4552;43.422;24.592;2023-07-30T23:47:37;99380.31;;;21.83;100.00
9035;BME280;4552;43.422;24.592;2023-07-30T23:50:04;99379.44;;;21.83;100.00
9035;BME280;4552;43.422;24.592;2023-07-30T23:52:31;99374.13;;;21.83;100.00
9035;BME280;4552;43.422;24.592;2023-07-30T23:54:58;99361.66;;;21.83;100.00
9035;BME280;4552;43.422;24.592;2023-07-30T23:57:25;99353.66;;;21.83;100.00
9035;BME280;4552;43.422;24.592;2023-07-30T23:59:52;99354.31;;;21.87;100.00
